sensor_id;sensor_type;location;lat;lon;timestamp;P1;durP1;ratioP1;P2;durP2;ratioP2
43160;SDS011;40968;52.342;5.528;2022-12-29T00:00:01;8.27;;;3.88;;
43160;SDS011;40968;52.342;5.528;2022-12-29T00:02:29;6.72;;;3.60;;
43160;SDS011;40968;52.342;5.528;2022-12-29T00:04:55;7.05;;;3.55;;
43160;SDS011;40968;52.342;5.528;2022-12-29T00:07:22;6.65;;;3.83;;
43160;SDS011;40968;52.342;5.528;2022-12-29T00:09:50;7.90;;;3.20;;
43160;SDS011;40968;52.342;5.528;2022-12-29T00:12:17;7.15;;;2.80;;
43160;SDS011;40968;52.342;5.528;2022-12-29T00:14:43;5.57;;;3.00;;
43160;SDS011;40968;52.342;5.528;2022-12-29T00:17:27;5.95;;;3.13;;
43160;SDS011;40968;52.342;5.528;2022-12-29T00:19:54;8.13;;;3.28;;
43160;SDS011;40968;52.342;5.528;2022-12-29T00:22:37;6.45;;;3.10;;
43160;SDS011;40968;52.342;5.528;2022-12-29T00:25:22;9.80;;;3.05;;
43160;SDS011;40968;52.342;5.528;2022-12-29T00:28:07;8.07;;;3.22;;
43160;SDS011;40968;52.342;5.528;2022-12-29T00:30:52;9.07;;;3.22;;
43160;SDS011;40968;52.342;5.528;2022-12-29T00:33:36;6.13;;;2.70;;
43160;SDS011;40968;52.342;5.528;2022-12-29T00:36:21;4.35;;;2.30;;
43160;SDS011;40968;52.342;5.528;2022-12-29T00:38:55;8.07;;;2.80;;
43160;SDS011;40968;52.342;5.528;2022-12-29T00:41:44;6.63;;;2.58;;
43160;SDS011;40968;52.342;5.528;2022-12-29T00:44:28;5.05;;;2.20;;
43160;SDS011;40968;52.342;5.528;2022-12-29T00:46:55;4.35;;;2.20;;
43160;SDS011;40968;52.342;5.528;2022-12-29T00:49:21;12.02;;;2.28;;
43160;SDS011;40968;52.342;5.528;2022-12-29T00:51:58;7.75;;;2.20;;
43160;SDS011;40968;52.342;5.528;2022-12-29T00:54:26;5.20;;;2.13;;
43160;SDS011;40968;52.342;5.528;2022-12-29T00:56:54;4.95;;;2.05;;
43160;SDS011;40968;52.342;5.528;2022-12-29T00:59:21;6.30;;;2.20;;
43160;SDS011;40968;52.342;5.528;2022-12-29T01:01:49;4.60;;;1.83;;
43160;SDS011;40968;52.342;5.528;2022-12-29T01:04:16;6.38;;;2.10;;
43160;SDS011;40968;52.342;5.528;2022-12-29T01:06:42;4.60;;;2.22;;
43160;SDS011;40968;52.342;5.528;2022-12-29T01:09:09;4.65;;;1.98;;
43160;SDS011;40968;52.342;5.528;2022-12-29T01:11:55;6.07;;;2.50;;
43160;SDS011;40968;52.342;5.528;2022-12-29T01:14:22;4.00;;;1.80;;
43160;SDS011;40968;52.342;5.528;2022-12-29T01:16:49;3.47;;;1.90;;
43160;SDS011;40968;52.342;5.528;2022-12-29T01:19:16;5.55;;;1.98;;
43160;SDS011;40968;52.342;5.528;2022-12-29T01:21:43;5.63;;;1.67;;
43160;SDS011;40968;52.342;5.528;2022-12-29T01:24:10;5.32;;;2.00;;
43160;SDS011;40968;52.342;5.528;2022-12-29T01:26:37;5.18;;;1.60;;
43160;SDS011;40968;52.342;5.528;2022-12-29T01:29:05;3.97;;;2.17;;
43160;SDS011;40968;52.342;5.528;2022-12-29T01:31:31;4.20;;;1.80;;
43160;SDS011;40968;52.342;5.528;2022-12-29T01:33:58;9.90;;;2.22;;
43160;SDS011;40968;52.342;5.528;2022-12-29T01:36:24;5.30;;;1.80;;
43160;SDS011;40968;52.342;5.528;2022-12-29T01:38:51;4.93;;;2.03;;
43160;SDS011;40968;52.342;5.528;2022-12-29T01:41:18;8.32;;;1.90;;
43160;SDS011;40968;52.342;5.528;2022-12-29T01:43:46;9.43;;;2.20;;
43160;SDS011;40968;52.342;5.528;2022-12-29T01:46:19;5.55;;;2.13;;
43160;SDS011;40968;52.342;5.528;2022-12-29T01:48:50;5.50;;;1.80;;
43160;SDS011;40968;52.342;5.528;2022-12-29T01:51:19;7.82;;;1.88;;
43160;SDS011;40968;52.342;5.528;2022-12-29T01:53:49;5.70;;;2.15;;
43160;SDS011;40968;52.342;5.528;2022-12-29T01:56:17;4.30;;;2.10;;
43160;SDS011;40968;52.342;5.528;2022-12-29T01:58:47;2.97;;;1.70;;
43160;SDS011;40968;52.342;5.528;2022-12-29T02:01:20;3.55;;;1.85;;
43160;SDS011;40968;52.342;5.528;2022-12-29T02:03:47;4.13;;;2.03;;
43160;SDS011;40968;52.342;5.528;2022-12-29T02:06:18;6.53;;;2.50;;
43160;SDS011;40968;52.342;5.528;2022-12-29T02:08:48;3.67;;;1.70;;
43160;SDS011;40968;52.342;5.528;2022-12-29T02:11:17;5.78;;;2.00;;
43160;SDS011;40968;52.342;5.528;2022-12-29T02:13:44;6.90;;;2.40;;
43160;SDS011;40968;52.342;5.528;2022-12-29T02:16:14;4.50;;;2.33;;
43160;SDS011;40968;52.342;5.528;2022-12-29T02:18:56;4.47;;;2.00;;
43160;SDS011;40968;52.342;5.528;2022-12-29T02:21:45;4.75;;;1.85;;
43160;SDS011;40968;52.342;5.528;2022-12-29T02:24:55;11.07;;;2.63;;
43160;SDS011;40968;52.342;5.528;2022-12-29T02:27:48;4.50;;;2.00;;
43160;SDS011;40968;52.342;5.528;2022-12-29T02:30:41;4.43;;;2.15;;
43160;SDS011;40968;52.342;5.528;2022-12-29T02:33:13;4.18;;;2.42;;
43160;SDS011;40968;52.342;5.528;2022-12-29T02:35:50;4.47;;;2.17;;
43160;SDS011;40968;52.342;5.528;2022-12-29T02:38:29;6.68;;;1.80;;
43160;SDS011;40968;52.342;5.528;2022-12-29T02:41:07;3.03;;;1.70;;
43160;SDS011;40968;52.342;5.528;2022-12-29T02:43:44;2.97;;;1.80;;
43160;SDS011;40968;52.342;5.528;2022-12-29T02:46:18;4.32;;;1.67;;
43160;SDS011;40968;52.342;5.528;2022-12-29T02:48:50;4.53;;;1.67;;
43160;SDS011;40968;52.342;5.528;2022-12-29T02:51:25;6.18;;;1.85;;
43160;SDS011;40968;52.342;5.528;2022-12-29T02:53:56;12.73;;;2.80;;
43160;SDS011;40968;52.342;5.528;2022-12-29T02:56:41;6.32;;;2.13;;
43160;SDS011;40968;52.342;5.528;2022-12-29T02:59:09;9.75;;;1.65;;
43160;SDS011;40968;52.342;5.528;2022-12-29T03:01:40;7.05;;;1.50;;
43160;SDS011;40968;52.342;5.528;2022-12-29T03:04:35;9.32;;;1.80;;
43160;SDS011;40968;52.342;5.528;2022-12-29T03:07:09;4.05;;;1.45;;
43160;SDS011;40968;52.342;5.528;2022-12-29T03:09:47;5.20;;;1.65;;
43160;SDS011;40968;52.342;5.528;2022-12-29T03:12:24;5.38;;;1.48;;
43160;SDS011;40968;52.342;5.528;2022-12-29T03:15:15;4.38;;;1.42;;
43160;SDS011;40968;52.342;5.528;2022-12-29T03:18:09;15.23;;;1.80;;
43160;SDS011;40968;52.342;5.528;2022-12-29T03:20:41;3.75;;;1.40;;
43160;SDS011;40968;52.342;5.528;2022-12-29T03:23:14;4.45;;;1.27;;
43160;SDS011;40968;52.342;5.528;2022-12-29T03:25:43;4.65;;;1.27;;
43160;SDS011;40968;52.342;5.528;2022-12-29T03:28:15;4.00;;;1.65;;
43160;SDS011;40968;52.342;5.528;2022-12-29T03:30:46;5.22;;;1.40;;
43160;SDS011;40968;52.342;5.528;2022-12-29T03:33:16;7.90;;;1.40;;
43160;SDS011;40968;52.342;5.528;2022-12-29T03:35:45;9.93;;;2.53;;
43160;SDS011;40968;52.342;5.528;2022-12-29T03:38:16;13.27;;;1.98;;
43160;SDS011;40968;52.342;5.528;2022-12-29T03:40:48;11.23;;;2.22;;
43160;SDS011;40968;52.342;5.528;2022-12-29T03:43:18;9.15;;;1.45;;
43160;SDS011;40968;52.342;5.528;2022-12-29T03:45:45;8.90;;;1.63;;
43160;SDS011;40968;52.342;5.528;2022-12-29T03:48:12;11.32;;;1.83;;
43160;SDS011;40968;52.342;5.528;2022-12-29T03:50:40;9.57;;;1.75;;
43160;SDS011;40968;52.342;5.528;2022-12-29T03:53:06;4.53;;;1.60;;
43160;SDS011;40968;52.342;5.528;2022-12-29T03:55:33;16.85;;;1.42;;
43160;SDS011;40968;52.342;5.528;2022-12-29T03:58:00;5.57;;;1.88;;
43160;SDS011;40968;52.342;5.528;2022-12-29T04:00:26;5.53;;;1.50;;
43160;SDS011;40968;52.342;5.528;2022-12-29T04:02:53;6.43;;;1.20;;
43160;SDS011;40968;52.342;5.528;2022-12-29T04:05:20;9.52;;;1.73;;
43160;SDS011;40968;52.342;5.528;2022-12-29T04:07:48;4.38;;;1.20;;
43160;SDS011;40968;52.342;5.528;2022-12-29T04:10:15;4.00;;;0.90;;
43160;SDS011;40968;52.342;5.528;2022-12-29T04:12:41;12.55;;;2.00;;
43160;SDS011;40968;52.342;5.528;2022-12-29T04:15:08;5.50;;;1.25;;
43160;SDS011;40968;52.342;5.528;2022-12-29T04:17:35;3.67;;;1.02;;
43160;SDS011;40968;52.342;5.528;2022-12-29T04:20:02;6.25;;;1.30;;
43160;SDS011;40968;52.342;5.528;2022-12-29T04:25:11;5.65;;;1.20;;
43160;SDS011;40968;52.342;5.528;2022-12-29T04:27:37;12.75;;;2.40;;
43160;SDS011;40968;52.342;5.528;2022-12-29T04:30:04;10.90;;;1.80;;
43160;SDS011;40968;52.342;5.528;2022-12-29T04:32:32;6.97;;;1.50;;
43160;SDS011;40968;52.342;5.528;2022-12-29T04:34:58;7.38;;;1.42;;
43160;SDS011;40968;52.342;5.528;2022-12-29T04:37:25;4.13;;;1.20;;
43160;SDS011;40968;52.342;5.528;2022-12-29T04:39:51;12.43;;;1.40;;
43160;SDS011;40968;52.342;5.528;2022-12-29T04:42:19;6.10;;;1.52;;
43160;SDS011;40968;52.342;5.528;2022-12-29T04:44:46;10.52;;;1.50;;
43160;SDS011;40968;52.342;5.528;2022-12-29T04:47:12;8.30;;;1.50;;
43160;SDS011;40968;52.342;5.528;2022-12-29T04:49:39;11.48;;;1.90;;
43160;SDS011;40968;52.342;5.528;2022-12-29T04:52:05;5.45;;;1.50;;
43160;SDS011;40968;52.342;5.528;2022-12-29T04:54:33;5.78;;;1.60;;
43160;SDS011;40968;52.342;5.528;2022-12-29T04:57:00;12.52;;;1.50;;
43160;SDS011;40968;52.342;5.528;2022-12-29T04:59:27;6.57;;;1.63;;
43160;SDS011;40968;52.342;5.528;2022-12-29T05:01:54;4.13;;;1.42;;
43160;SDS011;40968;52.342;5.528;2022-12-29T05:04:21;10.85;;;2.30;;
43160;SDS011;40968;52.342;5.528;2022-12-29T05:06:47;6.85;;;1.70;;
43160;SDS011;40968;52.342;5.528;2022-12-29T05:09:14;7.18;;;1.70;;
43160;SDS011;40968;52.342;5.528;2022-12-29T05:11:40;5.05;;;1.88;;
43160;SDS011;40968;52.342;5.528;2022-12-29T05:14:07;13.88;;;1.80;;
43160;SDS011;40968;52.342;5.528;2022-12-29T05:16:35;11.20;;;2.10;;
43160;SDS011;40968;52.342;5.528;2022-12-29T05:19:02;5.63;;;1.63;;
43160;SDS011;40968;52.342;5.528;2022-12-29T05:21:28;7.10;;;1.58;;
43160;SDS011;40968;52.342;5.528;2022-12-29T05:23:55;11.00;;;1.90;;
43160;SDS011;40968;52.342;5.528;2022-12-29T05:26:21;6.10;;;1.92;;
43160;SDS011;40968;52.342;5.528;2022-12-29T05:28:48;8.60;;;2.05;;
43160;SDS011;40968;52.342;5.528;2022-12-29T05:31:15;10.95;;;1.98;;
43160;SDS011;40968;52.342;5.528;2022-12-29T05:33:42;8.40;;;2.28;;
43160;SDS011;40968;52.342;5.528;2022-12-29T05:36:13;13.25;;;2.22;;
43160;SDS011;40968;52.342;5.528;2022-12-29T05:38:40;7.05;;;2.03;;
43160;SDS011;40968;52.342;5.528;2022-12-29T05:41:06;6.90;;;1.90;;
43160;SDS011;40968;52.342;5.528;2022-12-29T05:43:33;10.73;;;2.00;;
43160;SDS011;40968;52.342;5.528;2022-12-29T05:46:00;23.58;;;3.22;;
43160;SDS011;40968;52.342;5.528;2022-12-29T05:48:27;8.25;;;2.00;;
43160;SDS011;40968;52.342;5.528;2022-12-29T05:50:55;13.43;;;3.50;;
43160;SDS011;40968;52.342;5.528;2022-12-29T05:53:21;9.63;;;2.33;;
43160;SDS011;40968;52.342;5.528;2022-12-29T05:55:48;7.88;;;2.15;;
43160;SDS011;40968;52.342;5.528;2022-12-29T05:58:15;12.50;;;2.30;;
43160;SDS011;40968;52.342;5.528;2022-12-29T06:00:42;10.63;;;2.30;;
43160;SDS011;40968;52.342;5.528;2022-12-29T06:03:09;10.32;;;2.92;;
43160;SDS011;40968;52.342;5.528;2022-12-29T06:05:36;15.30;;;2.55;;
43160;SDS011;40968;52.342;5.528;2022-12-29T06:08:04;12.90;;;3.50;;
43160;SDS011;40968;52.342;5.528;2022-12-29T06:10:30;20.67;;;2.95;;
43160;SDS011;40968;52.342;5.528;2022-12-29T06:12:57;17.77;;;3.05;;
43160;SDS011;40968;52.342;5.528;2022-12-29T06:15:24;9.10;;;3.03;;
43160;SDS011;40968;52.342;5.528;2022-12-29T06:17:50;16.05;;;2.88;;
43160;SDS011;40968;52.342;5.528;2022-12-29T06:20:17;11.43;;;3.50;;
43160;SDS011;40968;52.342;5.528;2022-12-29T06:22:43;18.85;;;2.70;;
43160;SDS011;40968;52.342;5.528;2022-12-29T06:25:12;12.68;;;2.80;;
43160;SDS011;40968;52.342;5.528;2022-12-29T06:27:39;13.52;;;3.40;;
43160;SDS011;40968;52.342;5.528;2022-12-29T06:30:06;15.35;;;2.63;;
43160;SDS011;40968;52.342;5.528;2022-12-29T06:32:34;10.57;;;2.85;;
43160;SDS011;40968;52.342;5.528;2022-12-29T06:35:01;20.20;;;3.35;;
43160;SDS011;40968;52.342;5.528;2022-12-29T06:37:28;19.52;;;3.38;;
43160;SDS011;40968;52.342;5.528;2022-12-29T06:39:54;16.88;;;3.33;;
43160;SDS011;40968;52.342;5.528;2022-12-29T06:42:22;12.68;;;2.67;;
43160;SDS011;40968;52.342;5.528;2022-12-29T06:44:49;14.52;;;2.65;;
43160;SDS011;40968;52.342;5.528;2022-12-29T06:47:15;14.25;;;2.80;;
43160;SDS011;40968;52.342;5.528;2022-12-29T06:49:42;17.17;;;3.08;;
43160;SDS011;40968;52.342;5.528;2022-12-29T06:52:08;16.70;;;3.30;;
43160;SDS011;40968;52.342;5.528;2022-12-29T06:54:35;20.30;;;3.15;;
43160;SDS011;40968;52.342;5.528;2022-12-29T06:57:02;8.90;;;2.53;;
43160;SDS011;40968;52.342;5.528;2022-12-29T06:59:30;19.00;;;2.65;;
43160;SDS011;40968;52.342;5.528;2022-12-29T07:01:56;13.07;;;2.78;;
43160;SDS011;40968;52.342;5.528;2022-12-29T07:04:23;11.55;;;2.75;;
43160;SDS011;40968;52.342;5.528;2022-12-29T07:06:49;13.52;;;2.83;;
43160;SDS011;40968;52.342;5.528;2022-12-29T07:09:16;15.48;;;3.10;;
43160;SDS011;40968;52.342;5.528;2022-12-29T07:11:43;17.02;;;2.90;;
43160;SDS011;40968;52.342;5.528;2022-12-29T07:14:10;12.32;;;3.50;;
43160;SDS011;40968;52.342;5.528;2022-12-29T07:16:38;22.27;;;3.58;;
43160;SDS011;40968;52.342;5.528;2022-12-29T07:19:05;11.52;;;2.80;;
43160;SDS011;40968;52.342;5.528;2022-12-29T07:21:31;16.92;;;3.25;;
43160;SDS011;40968;52.342;5.528;2022-12-29T07:23:58;17.50;;;3.80;;
43160;SDS011;40968;52.342;5.528;2022-12-29T07:26:24;19.52;;;3.83;;
43160;SDS011;40968;52.342;5.528;2022-12-29T07:28:51;14.63;;;2.92;;
43160;SDS011;40968;52.342;5.528;2022-12-29T07:31:19;19.42;;;4.00;;
43160;SDS011;40968;52.342;5.528;2022-12-29T07:33:48;11.90;;;3.13;;
43160;SDS011;40968;52.342;5.528;2022-12-29T07:36:15;13.40;;;3.30;;
43160;SDS011;40968;52.342;5.528;2022-12-29T07:38:42;14.90;;;3.45;;
43160;SDS011;40968;52.342;5.528;2022-12-29T07:41:09;14.73;;;2.72;;
43160;SDS011;40968;52.342;5.528;2022-12-29T07:43:36;20.77;;;3.25;;
43160;SDS011;40968;52.342;5.528;2022-12-29T07:46:02;15.52;;;2.40;;
43160;SDS011;40968;52.342;5.528;2022-12-29T07:48:29;13.95;;;2.40;;
43160;SDS011;40968;52.342;5.528;2022-12-29T07:50:59;13.57;;;2.50;;
43160;SDS011;40968;52.342;5.528;2022-12-29T07:53:26;11.30;;;2.25;;
43160;SDS011;40968;52.342;5.528;2022-12-29T07:55:53;7.60;;;1.75;;
43160;SDS011;40968;52.342;5.528;2022-12-29T07:58:19;13.10;;;2.95;;
43160;SDS011;40968;52.342;5.528;2022-12-29T08:00:46;8.27;;;2.88;;
43160;SDS011;40968;52.342;5.528;2022-12-29T08:03:12;14.40;;;2.55;;
43160;SDS011;40968;52.342;5.528;2022-12-29T08:05:39;13.05;;;2.40;;
43160;SDS011;40968;52.342;5.528;2022-12-29T08:08:07;9.18;;;2.40;;
43160;SDS011;40968;52.342;5.528;2022-12-29T08:10:34;15.05;;;2.88;;
43160;SDS011;40968;52.342;5.528;2022-12-29T08:13:00;12.68;;;2.75;;
43160;SDS011;40968;52.342;5.528;2022-12-29T08:15:27;12.23;;;2.63;;
43160;SDS011;40968;52.342;5.528;2022-12-29T08:17:54;18.48;;;3.60;;
43160;SDS011;40968;52.342;5.528;2022-12-29T08:20:20;11.02;;;2.40;;
43160;SDS011;40968;52.342;5.528;2022-12-29T08:22:47;15.40;;;3.00;;
43160;SDS011;40968;52.342;5.528;2022-12-29T08:25:15;12.95;;;2.95;;
43160;SDS011;40968;52.342;5.528;2022-12-29T08:27:42;15.80;;;2.92;;
43160;SDS011;40968;52.342;5.528;2022-12-29T08:30:09;11.50;;;2.95;;
43160;SDS011;40968;52.342;5.528;2022-12-29T08:32:36;20.63;;;4.07;;
43160;SDS011;40968;52.342;5.528;2022-12-29T08:35:03;13.00;;;3.22;;
43160;SDS011;40968;52.342;5.528;2022-12-29T08:37:31;13.25;;;3.05;;
43160;SDS011;40968;52.342;5.528;2022-12-29T08:39:58;15.98;;;3.17;;
43160;SDS011;40968;52.342;5.528;2022-12-29T08:42:29;15.18;;;3.17;;
43160;SDS011;40968;52.342;5.528;2022-12-29T08:44:56;13.32;;;2.97;;
43160;SDS011;40968;52.342;5.528;2022-12-29T08:47:23;24.15;;;3.20;;
43160;SDS011;40968;52.342;5.528;2022-12-29T08:49:50;29.15;;;4.03;;
43160;SDS011;40968;52.342;5.528;2022-12-29T08:52:17;10.38;;;2.90;;
43160;SDS011;40968;52.342;5.528;2022-12-29T08:54:44;31.08;;;4.18;;
43160;SDS011;40968;52.342;5.528;2022-12-29T08:57:10;17.10;;;2.95;;
43160;SDS011;40968;52.342;5.528;2022-12-29T08:59:38;19.42;;;3.17;;
43160;SDS011;40968;52.342;5.528;2022-12-29T09:02:05;26.02;;;4.28;;
43160;SDS011;40968;52.342;5.528;2022-12-29T09:04:32;24.85;;;3.15;;
43160;SDS011;40968;52.342;5.528;2022-12-29T09:06:58;19.17;;;3.40;;
43160;SDS011;40968;52.342;5.528;2022-12-29T09:09:25;17.20;;;2.83;;
43160;SDS011;40968;52.342;5.528;2022-12-29T09:11:52;11.52;;;2.65;;
43160;SDS011;40968;52.342;5.528;2022-12-29T09:14:18;12.73;;;2.88;;
43160;SDS011;40968;52.342;5.528;2022-12-29T09:16:47;11.05;;;3.10;;
43160;SDS011;40968;52.342;5.528;2022-12-29T09:19:34;13.20;;;2.80;;
43160;SDS011;40968;52.342;5.528;2022-12-29T09:22:00;16.80;;;2.85;;
43160;SDS011;40968;52.342;5.528;2022-12-29T09:24:27;21.77;;;3.80;;
43160;SDS011;40968;52.342;5.528;2022-12-29T09:26:54;17.77;;;2.97;;
43160;SDS011;40968;52.342;5.528;2022-12-29T09:29:21;14.57;;;2.70;;
43160;SDS011;40968;52.342;5.528;2022-12-29T09:31:49;17.75;;;2.85;;
43160;SDS011;40968;52.342;5.528;2022-12-29T09:34:16;14.43;;;2.75;;
43160;SDS011;40968;52.342;5.528;2022-12-29T09:36:42;17.17;;;3.35;;
43160;SDS011;40968;52.342;5.528;2022-12-29T09:39:09;15.23;;;2.83;;
43160;SDS011;40968;52.342;5.528;2022-12-29T09:41:36;17.33;;;3.45;;
43160;SDS011;40968;52.342;5.528;2022-12-29T09:44:10;12.98;;;3.30;;
43160;SDS011;40968;52.342;5.528;2022-12-29T09:46:43;13.45;;;2.83;;
43160;SDS011;40968;52.342;5.528;2022-12-29T09:49:19;12.52;;;3.15;;
43160;SDS011;40968;52.342;5.528;2022-12-29T09:51:52;23.75;;;4.07;;
43160;SDS011;40968;52.342;5.528;2022-12-29T09:54:25;13.73;;;3.25;;
43160;SDS011;40968;52.342;5.528;2022-12-29T09:57:00;18.92;;;2.85;;
43160;SDS011;40968;52.342;5.528;2022-12-29T09:59:31;16.33;;;2.88;;
43160;SDS011;40968;52.342;5.528;2022-12-29T10:02:11;20.77;;;3.38;;
43160;SDS011;40968;52.342;5.528;2022-12-29T10:04:51;20.50;;;3.08;;
43160;SDS011;40968;52.342;5.528;2022-12-29T10:07:21;17.02;;;3.05;;
43160;SDS011;40968;52.342;5.528;2022-12-29T10:09:59;25.48;;;3.13;;
43160;SDS011;40968;52.342;5.528;2022-12-29T10:12:46;26.85;;;3.40;;
43160;SDS011;40968;52.342;5.528;2022-12-29T10:18:26;18.25;;;2.67;;
43160;SDS011;40968;52.342;5.528;2022-12-29T10:21:07;11.35;;;3.63;;
43160;SDS011;40968;52.342;5.528;2022-12-29T10:23:42;14.38;;;2.67;;
43160;SDS011;40968;52.342;5.528;2022-12-29T10:26:12;12.35;;;2.85;;
43160;SDS011;40968;52.342;5.528;2022-12-29T10:28:42;14.25;;;2.70;;
43160;SDS011;40968;52.342;5.528;2022-12-29T10:31:13;10.47;;;2.63;;
43160;SDS011;40968;52.342;5.528;2022-12-29T10:33:45;24.65;;;4.72;;
43160;SDS011;40968;52.342;5.528;2022-12-29T10:36:16;13.65;;;2.53;;
43160;SDS011;40968;52.342;5.528;2022-12-29T10:38:51;17.75;;;3.00;;
43160;SDS011;40968;52.342;5.528;2022-12-29T10:41:24;11.70;;;2.72;;
43160;SDS011;40968;52.342;5.528;2022-12-29T10:46:23;13.40;;;3.28;;
43160;SDS011;40968;52.342;5.528;2022-12-29T10:51:22;16.88;;;3.38;;
43160;SDS011;40968;52.342;5.528;2022-12-29T10:53:53;14.60;;;3.42;;
43160;SDS011;40968;52.342;5.528;2022-12-29T10:56:27;22.20;;;3.72;;
43160;SDS011;40968;52.342;5.528;2022-12-29T10:58:58;17.95;;;3.53;;
43160;SDS011;40968;52.342;5.528;2022-12-29T11:01:31;31.85;;;3.92;;
43160;SDS011;40968;52.342;5.528;2022-12-29T11:04:03;14.13;;;3.45;;
43160;SDS011;40968;52.342;5.528;2022-12-29T11:06:33;14.98;;;3.50;;
43160;SDS011;40968;52.342;5.528;2022-12-29T11:09:01;22.08;;;3.90;;
43160;SDS011;40968;52.342;5.528;2022-12-29T11:11:36;28.80;;;4.57;;
43160;SDS011;40968;52.342;5.528;2022-12-29T11:14:08;25.60;;;5.72;;
43160;SDS011;40968;52.342;5.528;2022-12-29T11:16:38;23.63;;;3.95;;
43160;SDS011;40968;52.342;5.528;2022-12-29T11:19:10;15.15;;;4.47;;
43160;SDS011;40968;52.342;5.528;2022-12-29T11:21:47;19.23;;;4.40;;
43160;SDS011;40968;52.342;5.528;2022-12-29T11:24:18;21.48;;;4.53;;
43160;SDS011;40968;52.342;5.528;2022-12-29T11:26:48;22.63;;;4.85;;
43160;SDS011;40968;52.342;5.528;2022-12-29T11:29:21;22.20;;;4.72;;
43160;SDS011;40968;52.342;5.528;2022-12-29T11:31:51;21.63;;;5.10;;
43160;SDS011;40968;52.342;5.528;2022-12-29T11:34:20;27.98;;;5.00;;
43160;SDS011;40968;52.342;5.528;2022-12-29T11:36:50;28.85;;;6.22;;
43160;SDS011;40968;52.342;5.528;2022-12-29T11:39:23;17.63;;;5.13;;
43160;SDS011;40968;52.342;5.528;2022-12-29T11:41:54;27.08;;;5.25;;
43160;SDS011;40968;52.342;5.528;2022-12-29T11:44:20;21.65;;;6.40;;
43160;SDS011;40968;52.342;5.528;2022-12-29T11:46:48;20.52;;;5.75;;
43160;SDS011;40968;52.342;5.528;2022-12-29T11:49:19;29.48;;;5.63;;
43160;SDS011;40968;52.342;5.528;2022-12-29T11:51:47;28.27;;;7.15;;
43160;SDS011;40968;52.342;5.528;2022-12-29T11:54:18;24.73;;;5.30;;
43160;SDS011;40968;52.342;5.528;2022-12-29T11:56:48;28.95;;;5.28;;
43160;SDS011;40968;52.342;5.528;2022-12-29T11:59:35;23.25;;;4.85;;
43160;SDS011;40968;52.342;5.528;2022-12-29T12:02:22;25.42;;;5.10;;
43160;SDS011;40968;52.342;5.528;2022-12-29T12:04:58;17.27;;;4.32;;
43160;SDS011;40968;52.342;5.528;2022-12-29T12:07:34;24.98;;;5.55;;
43160;SDS011;40968;52.342;5.528;2022-12-29T12:10:05;29.48;;;4.82;;
43160;SDS011;40968;52.342;5.528;2022-12-29T12:12:38;20.38;;;5.05;;
43160;SDS011;40968;52.342;5.528;2022-12-29T12:15:12;23.67;;;4.35;;
43160;SDS011;40968;52.342;5.528;2022-12-29T12:17:46;27.92;;;5.30;;
43160;SDS011;40968;52.342;5.528;2022-12-29T12:20:18;24.33;;;4.57;;
43160;SDS011;40968;52.342;5.528;2022-12-29T12:22:53;20.95;;;4.93;;
43160;SDS011;40968;52.342;5.528;2022-12-29T12:25:29;33.95;;;4.65;;
43160;SDS011;40968;52.342;5.528;2022-12-29T12:28:02;20.35;;;4.30;;
43160;SDS011;40968;52.342;5.528;2022-12-29T12:30:37;24.25;;;4.97;;
43160;SDS011;40968;52.342;5.528;2022-12-29T12:33:13;15.27;;;4.28;;
43160;SDS011;40968;52.342;5.528;2022-12-29T12:35:46;29.20;;;4.47;;
43160;SDS011;40968;52.342;5.528;2022-12-29T12:38:23;35.47;;;5.88;;
43160;SDS011;40968;52.342;5.528;2022-12-29T12:40:58;26.30;;;4.80;;
43160;SDS011;40968;52.342;5.528;2022-12-29T12:43:32;16.75;;;3.78;;
43160;SDS011;40968;52.342;5.528;2022-12-29T12:48:49;18.70;;;3.83;;
43160;SDS011;40968;52.342;5.528;2022-12-29T12:51:32;19.05;;;4.03;;
43160;SDS011;40968;52.342;5.528;2022-12-29T12:54:18;30.42;;;4.90;;
43160;SDS011;40968;52.342;5.528;2022-12-29T12:57:03;28.50;;;4.63;;
43160;SDS011;40968;52.342;5.528;2022-12-29T12:59:43;19.60;;;3.65;;
43160;SDS011;40968;52.342;5.528;2022-12-29T13:02:22;17.08;;;4.35;;
43160;SDS011;40968;52.342;5.528;2022-12-29T13:05:03;21.20;;;4.20;;
43160;SDS011;40968;52.342;5.528;2022-12-29T13:07:43;29.42;;;4.22;;
43160;SDS011;40968;52.342;5.528;2022-12-29T13:10:21;13.77;;;3.38;;
43160;SDS011;40968;52.342;5.528;2022-12-29T13:13:09;22.58;;;3.33;;
43160;SDS011;40968;52.342;5.528;2022-12-29T13:15:55;26.38;;;5.65;;
43160;SDS011;40968;52.342;5.528;2022-12-29T13:18:32;14.68;;;3.50;;
43160;SDS011;40968;52.342;5.528;2022-12-29T13:21:12;13.27;;;3.60;;
43160;SDS011;40968;52.342;5.528;2022-12-29T13:23:53;14.43;;;3.28;;
43160;SDS011;40968;52.342;5.528;2022-12-29T13:26:28;19.55;;;5.38;;
43160;SDS011;40968;52.342;5.528;2022-12-29T13:29:04;13.90;;;3.65;;
43160;SDS011;40968;52.342;5.528;2022-12-29T13:31:41;22.30;;;3.63;;
43160;SDS011;40968;52.342;5.528;2022-12-29T13:34:15;12.77;;;3.90;;
43160;SDS011;40968;52.342;5.528;2022-12-29T13:36:49;14.70;;;3.78;;
43160;SDS011;40968;52.342;5.528;2022-12-29T13:39:21;20.15;;;4.68;;
43160;SDS011;40968;52.342;5.528;2022-12-29T13:41:54;16.75;;;3.70;;
43160;SDS011;40968;52.342;5.528;2022-12-29T13:44:23;21.58;;;4.15;;
43160;SDS011;40968;52.342;5.528;2022-12-29T13:46:54;19.00;;;3.92;;
43160;SDS011;40968;52.342;5.528;2022-12-29T13:49:27;14.57;;;4.10;;
43160;SDS011;40968;52.342;5.528;2022-12-29T13:51:56;19.65;;;3.58;;
43160;SDS011;40968;52.342;5.528;2022-12-29T13:54:27;39.72;;;5.80;;
43160;SDS011;40968;52.342;5.528;2022-12-29T13:57:03;11.85;;;3.13;;
43160;SDS011;40968;52.342;5.528;2022-12-29T13:59:36;17.27;;;3.22;;
43160;SDS011;40968;52.342;5.528;2022-12-29T14:02:11;11.98;;;2.40;;
43160;SDS011;40968;52.342;5.528;2022-12-29T14:04:58;13.18;;;3.08;;
43160;SDS011;40968;52.342;5.528;2022-12-29T14:07:27;23.70;;;3.40;;
43160;SDS011;40968;52.342;5.528;2022-12-29T14:09:55;14.40;;;3.63;;
43160;SDS011;40968;52.342;5.528;2022-12-29T14:12:31;15.52;;;4.15;;
43160;SDS011;40968;52.342;5.528;2022-12-29T14:15:06;24.33;;;3.65;;
43160;SDS011;40968;52.342;5.528;2022-12-29T14:17:45;17.02;;;3.35;;
43160;SDS011;40968;52.342;5.528;2022-12-29T14:20:28;22.30;;;3.38;;
43160;SDS011;40968;52.342;5.528;2022-12-29T14:22:55;21.70;;;3.35;;
43160;SDS011;40968;52.342;5.528;2022-12-29T14:28:29;15.70;;;4.25;;
43160;SDS011;40968;52.342;5.528;2022-12-29T14:30:57;14.82;;;3.47;;
43160;SDS011;40968;52.342;5.528;2022-12-29T14:33:26;20.73;;;4.45;;
43160;SDS011;40968;52.342;5.528;2022-12-29T14:35:54;16.75;;;3.42;;
43160;SDS011;40968;52.342;5.528;2022-12-29T14:38:23;25.23;;;4.35;;
43160;SDS011;40968;52.342;5.528;2022-12-29T14:40:52;7.68;;;2.63;;
43160;SDS011;40968;52.342;5.528;2022-12-29T14:43:20;10.32;;;2.40;;
43160;SDS011;40968;52.342;5.528;2022-12-29T14:45:56;12.48;;;2.58;;
43160;SDS011;40968;52.342;5.528;2022-12-29T14:48:28;14.07;;;2.95;;
43160;SDS011;40968;52.342;5.528;2022-12-29T14:50:58;15.05;;;3.83;;
43160;SDS011;40968;52.342;5.528;2022-12-29T14:53:41;8.40;;;2.90;;
43160;SDS011;40968;52.342;5.528;2022-12-29T14:56:10;9.23;;;2.22;;
43160;SDS011;40968;52.342;5.528;2022-12-29T14:58:41;10.63;;;2.72;;
43160;SDS011;40968;52.342;5.528;2022-12-29T15:01:22;12.43;;;2.60;;
43160;SDS011;40968;52.342;5.528;2022-12-29T15:03:53;12.52;;;2.45;;
43160;SDS011;40968;52.342;5.528;2022-12-29T15:06:22;16.73;;;2.90;;
43160;SDS011;40968;52.342;5.528;2022-12-29T15:08:54;10.38;;;2.17;;
43160;SDS011;40968;52.342;5.528;2022-12-29T15:11:29;5.43;;;1.95;;
43160;SDS011;40968;52.342;5.528;2022-12-29T15:17:08;6.53;;;1.40;;
43160;SDS011;40968;52.342;5.528;2022-12-29T15:19:36;7.05;;;1.55;;